Belle Chasse — WDG2912 — position and weather

sailwx.info

Track history (hours):
 
Tides and Currents Weather Stations Pressure Air Temp Water Temp Dewpoint Dewpoint Depression Visibility Wind Speed Wind Dir Waves Ship Positions

Belle Chasse

Owner: Higman Barge Lines, Inc, Orange, TX. More information available from US FCC via Universal Licensing System and Coast Guard Vessel Documentation Center.

Last reported at 2016-Jun-20 12:33 UTC. Time now 2016-Jun-26 06:34 UTC.
Position N 29°27' W 094°51'.

Length 26 m; draft 3 m.

Type: Towing. MMSI: 367520550.

Date/timePositionNaut miles runAvg speedWind from/ knotsBaromVisibWave heightAir tempDewpointWater temp
2016-Jun-20 12:33N 29°27' W 094°51'5 4.9
2016-Jun-20 11:33N 29°31' W 094°53'6 5.4
2016-Jun-20 10:32N 29°36' W 094°57'5 5.4
2016-Jun-20 09:32N 29°41' W 094°59'5 4.9
2016-Jun-20 08:33N 29°44' W 095°03'4 4.0
2016-Jun-20 07:31N 29°44' W 095°08'6 0.5
2016-Jun-19 18:29N 29°43' W 095°15'4 0.2
2016-Jun-19 02:10N 29°45' W 095°11'4 6.9
2016-Jun-19 01:33N 29°45' W 095°06'1 0.4
2016-Jun-18 23:31N 29°45' W 095°06'2 0.2
2016-Jun-18 14:15N 29°47' W 095°06'4 4.3
2016-Jun-18 13:25N 29°44' W 095°09'5 4.0
2016-Jun-18 12:09N 29°43' W 095°15'4 6.5
2016-Jun-18 11:34N 29°45' W 095°11'5 5.3
2016-Jun-18 10:32N 29°47' W 095°05'1 0.1
2016-Jun-17 19:32N 29°46' W 095°06'1 1.5
2016-Jun-17 18:30N 29°45' W 095°07'2 1.7
2016-Jun-17 17:33N 29°46' W 095°05'1 0.0
2016-Jun-17 04:32N 29°46' W 095°06'0 0.0
2016-Jun-17 03:24N 29°46' W 095°06'1 1.3
2016-Jun-17 02:29N 29°46' W 095°05'5 5.2
2016-Jun-17 01:33N 29°43' W 095°01'8 8.4
2016-Jun-17 00:33N 29°35' W 094°56'9 8.3
2016-Jun-16 23:31N 29°28' W 094°51'7 0.7
2016-Jun-16 13:30N 29°21' W 094°49'1 0.3
2016-Jun-16 11:31N 29°21' W 094°49'3 0.1
2016-Jun-15 13:26N 29°23' W 094°52'5 3.6
2016-Jun-15 12:08N 29°27' W 094°51'4 7.1
2016-Jun-15 11:33N 29°31' W 094°53'7 7.0
2016-Jun-15 10:33N 29°37' W 094°57'6 5.5
2016-Jun-15 09:33N 29°42' W 094°60'6 5.5
2016-Jun-15 08:27N 29°46' W 095°05'5 5.0
2016-Jun-15 07:28N 29°45' W 095°11'4 0.4
2016-Jun-14 21:26N 29°43' W 095°15'5 5.8
2016-Jun-14 20:33N 29°44' W 095°09'4 2.7
2016-Jun-14 19:15N 29°46' W 095°06'0 0.0
2016-Jun-14 16:29N 29°47' W 095°06'2 2.1
2016-Jun-14 15:33N 29°45' W 095°07'0 0.0
2016-Jun-14 14:33N 29°45' W 095°07'0 0.1
2016-Jun-14 13:33N 29°45' W 095°06'2 0.2
2016-Jun-14 06:33N 29°46' W 095°05'0 0.1
2016-Jun-14 03:29N 29°46' W 095°06'5 5.3
2016-Jun-14 02:33N 29°43' W 095°01'7 6.6
2016-Jun-14 01:33N 29°37' W 094°57'7 7.5
2016-Jun-14 00:33N 29°31' W 094°53'9 7.2
2016-Jun-13 23:21N 29°23' W 094°49'4 0.1
2016-Jun-12 13:15N 29°27' W 094°51'4 6.2
2016-Jun-12 12:34N 29°31' W 094°53'6 5.8
2016-Jun-12 11:33N 29°36' W 094°57'6 5.6
2016-Jun-12 10:33N 29°41' W 094°59'5 4.9
2016-Jun-12 09:30N 29°44' W 095°04'5 4.2
2016-Jun-12 08:25N 29°44' W 095°09'4 4.7
2016-Jun-12 07:31N 29°44' W 095°13'0 0.0
2016-Jun-11 06:25N 29°43' W 095°14'5 5.6
2016-Jun-11 05:32N 29°44' W 095°08'4 3.3
2016-Jun-11 04:22N 29°46' W 095°05'0 0.0
2016-Jun-11 03:28N 29°46' W 095°05'0 0.0
2016-Jun-11 00:19N 29°46' W 095°05'0 0.0
2016-Jun-10 22:25N 29°46' W 095°05'0 0.0
2016-Jun-10 21:28N 29°46' W 095°05'0 0.0
2016-Jun-10 20:28N 29°46' W 095°05'0 0.0
2016-Jun-10 19:11N 29°46' W 095°05'0 0.1
2016-Jun-10 18:31N 29°46' W 095°05'0 0.0
2016-Jun-10 15:33N 29°46' W 095°05'  
Track history (hours):
 
Tides and Currents Weather Stations Pressure Air Temp Water Temp Dewpoint Dewpoint Depression Visibility Wind Speed Wind Dir Waves Ship Positions

Belle Chasse

Owner: Higman Barge Lines, Inc, Orange, TX. More information available from US FCC via Universal Licensing System and Coast Guard Vessel Documentation Center.

Last reported at 2016-Jun-20 12:33 UTC. Time now 2016-Jun-26 06:34 UTC.
Position N 29°27' W 094°51'.

Length 26 m; draft 3 m.

Type: Towing. MMSI: 367520550.

Date/timePositionNaut miles runAvg speedWind from/ knotsBaromVisibWave heightAir tempDewpointWater temp
2016-Jun-20 12:33N 29°27' W 094°51'5 4.9
2016-Jun-20 11:33N 29°31' W 094°53'6 5.4
2016-Jun-20 10:32N 29°36' W 094°57'5 5.4
2016-Jun-20 09:32N 29°41' W 094°59'5 4.9
2016-Jun-20 08:33N 29°44' W 095°03'4 4.0
2016-Jun-20 07:31N 29°44' W 095°08'6 0.5
2016-Jun-19 18:29N 29°43' W 095°15'4 0.2
2016-Jun-19 02:10N 29°45' W 095°11'4 6.9
2016-Jun-19 01:33N 29°45' W 095°06'1 0.4
2016-Jun-18 23:31N 29°45' W 095°06'2 0.2
2016-Jun-18 14:15N 29°47' W 095°06'4 4.3
2016-Jun-18 13:25N 29°44' W 095°09'5 4.0
2016-Jun-18 12:09N 29°43' W 095°15'4 6.5
2016-Jun-18 11:34N 29°45' W 095°11'5 5.3
2016-Jun-18 10:32N 29°47' W 095°05'1 0.1
2016-Jun-17 19:32N 29°46' W 095°06'1 1.5
2016-Jun-17 18:30N 29°45' W 095°07'2 1.7
2016-Jun-17 17:33N 29°46' W 095°05'1 0.0
2016-Jun-17 04:32N 29°46' W 095°06'0 0.0
2016-Jun-17 03:24N 29°46' W 095°06'1 1.3
2016-Jun-17 02:29N 29°46' W 095°05'5 5.2
2016-Jun-17 01:33N 29°43' W 095°01'8 8.4
2016-Jun-17 00:33N 29°35' W 094°56'9 8.3
2016-Jun-16 23:31N 29°28' W 094°51'7 0.7
2016-Jun-16 13:30N 29°21' W 094°49'1 0.3
2016-Jun-16 11:31N 29°21' W 094°49'3 0.1
2016-Jun-15 13:26N 29°23' W 094°52'5 3.6
2016-Jun-15 12:08N 29°27' W 094°51'4 7.1
2016-Jun-15 11:33N 29°31' W 094°53'7 7.0
2016-Jun-15 10:33N 29°37' W 094°57'6 5.5
2016-Jun-15 09:33N 29°42' W 094°60'6 5.5
2016-Jun-15 08:27N 29°46' W 095°05'5 5.0
2016-Jun-15 07:28N 29°45' W 095°11'4 0.4
2016-Jun-14 21:26N 29°43' W 095°15'5 5.8
2016-Jun-14 20:33N 29°44' W 095°09'4 2.7
2016-Jun-14 19:15N 29°46' W 095°06'0 0.0
2016-Jun-14 16:29N 29°47' W 095°06'2 2.1
2016-Jun-14 15:33N 29°45' W 095°07'0 0.0
2016-Jun-14 14:33N 29°45' W 095°07'0 0.1
2016-Jun-14 13:33N 29°45' W 095°06'2 0.2
2016-Jun-14 06:33N 29°46' W 095°05'0 0.1
2016-Jun-14 03:29N 29°46' W 095°06'5 5.3
2016-Jun-14 02:33N 29°43' W 095°01'7 6.6
2016-Jun-14 01:33N 29°37' W 094°57'7 7.5
2016-Jun-14 00:33N 29°31' W 094°53'9 7.2
2016-Jun-13 23:21N 29°23' W 094°49'4 0.1
2016-Jun-12 13:15N 29°27' W 094°51'4 6.2
2016-Jun-12 12:34N 29°31' W 094°53'6 5.8
2016-Jun-12 11:33N 29°36' W 094°57'6 5.6
2016-Jun-12 10:33N 29°41' W 094°59'5 4.9
2016-Jun-12 09:30N 29°44' W 095°04'5 4.2
2016-Jun-12 08:25N 29°44' W 095°09'4 4.7
2016-Jun-12 07:31N 29°44' W 095°13'0 0.0
2016-Jun-11 06:25N 29°43' W 095°14'5 5.6
2016-Jun-11 05:32N 29°44' W 095°08'4 3.3
2016-Jun-11 04:22N 29°46' W 095°05'0 0.0
2016-Jun-11 03:28N 29°46' W 095°05'0 0.0
2016-Jun-11 00:19N 29°46' W 095°05'0 0.0
2016-Jun-10 22:25N 29°46' W 095°05'0 0.0
2016-Jun-10 21:28N 29°46' W 095°05'0 0.0
2016-Jun-10 20:28N 29°46' W 095°05'0 0.0
2016-Jun-10 19:11N 29°46' W 095°05'0 0.1
2016-Jun-10 18:31N 29°46' W 095°05'0 0.0
2016-Jun-10 15:33N 29°46' W 095°05'  

Dump ship's entire track history